Time;durP1;ratioP1;P1;durP2;ratioP2;P2;SDS_P1;SDS_P2;PMS_P1;PMS_P2;Temp;Humidity;BMP_temperature;BMP_pressure;BME280_temperature;BME280_humidity;BME280_pressure;Samples;Min_cycle;Max_cycle;Signal;HPM_P1;HPM_P2
2021/01/01 00:03:57;;;;;;;56.80;36.42;;;;;;;-0.01;84.95;99380.19;2963763;80;21574;-67
2021/01/01 00:08:00;;;;;;;66.90;38.95;;;;;;;-0.02;85.18;99376.33;2919213;81;21559;-70
2021/01/01 00:12:05;;;;;;;48.73;28.15;;;;;;;0.00;85.47;99378.42;2963659;78;21081;-70
2021/01/01 00:16:11;;;;;;;64.97;37.90;;;;;;;0.02;85.22;99377.88;2923920;80;21103;-69
2021/01/01 00:20:15;;;;;;;;;;;;;;;-0.01;85.30;99376.70;2921326;80;22183;-70
2021/01/01 00:24:18;;;;;;;62.93;35.00;;;;;;;-0.05;85.51;99384.34;2916390;81;20188;-69
2021/01/01 00:28:57;;;;;;;61.00;34.92;;;;;;;-0.15;85.78;99387.45;2962747;79;21171;-70
2021/01/01 00:33:01;;;;;;;69.07;39.95;;;;;;;-0.13;86.30;99398.28;2963160;80;21583;-69
2021/01/01 00:37:05;;;;;;;56.98;36.23;;;;;;;-0.10;86.54;99387.18;2916457;81;21628;-68
2021/01/01 00:41:09;;;;;;;61.63;35.48;;;;;;;-0.09;86.29;99385.42;2960871;80;21159;-68
2021/01/01 00:45:13;;;;;;;55.88;36.15;;;;;;;-0.15;86.60;99399.66;2963814;80;21116;-67
2021/01/01 00:49:16;;;;;;;54.55;33.85;;;;;;;-0.14;87.03;99393.50;2963519;79;21139;-72
2021/01/01 00:53:19;;;;;;;66.17;32.63;;;;;;;-0.14;86.87;99397.42;2963997;80;21120;-68
2021/01/01 00:57:22;;;;;;;60.38;39.92;;;;;;;-0.19;87.28;99395.07;2963824;80;21140;-69
2021/01/01 01:01:28;;;;;;;54.20;32.38;;;;;;;-0.21;87.51;99390.36;2952221;80;21116;-67
2021/01/01 01:05:44;;;;;;;51.60;26.82;;;;;;;-0.19;87.48;99399.44;2944195;80;21117;-69
2021/01/01 01:09:49;;;;;;;55.90;32.78;;;;;;;-0.23;87.71;99396.12;2910233;80;21169;-67
2021/01/01 01:13:55;;;;;;;53.33;30.00;;;;;;;-0.21;87.94;99402.59;2907988;81;21159;-68
2021/01/01 01:17:58;;;;;;;56.90;37.37;;;;;;;-0.15;87.83;99399.20;2907991;81;21467;-69
2021/01/01 01:22:01;;;;;;;51.45;31.95;;;;;;;-0.12;87.67;99398.66;2907569;80;21082;-67
2021/01/01 01:26:05;;;;;;;68.22;33.65;;;;;;;-0.15;87.74;99391.81;2909826;81;21420;-67
2021/01/01 01:30:10;;;;;;;61.58;33.88;;;;;;;-0.18;88.34;99385.44;2925597;80;21622;-69
2021/01/01 01:34:13;;;;;;;54.93;35.83;;;;;;;-0.11;88.74;99384.66;2944831;80;21594;-72
2021/01/01 01:38:16;;;;;;;58.92;34.98;;;;;;;0.02;88.82;99386.17;2944808;79;21174;-69
2021/01/01 01:42:19;;;;;;;55.95;35.28;;;;;;;0.12;88.36;99385.60;2944878;80;21129;-67
2021/01/01 01:46:27;;;;;;;54.30;34.75;;;;;;;0.21;88.01;99389.98;2944670;79;21607;-67
2021/01/01 01:50:31;;;;;;;60.95;37.70;;;;;;;0.24;87.58;99374.95;2943617;80;21069;-67
2021/01/01 01:54:34;;;;;;;65.72;36.35;;;;;;;0.28;87.55;99388.72;2945038;80;21136;-67
2021/01/01 01:58:39;;;;;;;53.78;33.55;;;;;;;0.26;87.23;99397.94;2944848;80;21137;-67
2021/01/01 02:02:42;;;;;;;48.87;29.27;;;;;;;0.27;87.41;99386.55;2935308;80;21643;-70
2021/01/01 02:06:46;;;;;;;49.00;29.82;;;;;;;0.33;87.35;99394.54;2908565;81;21125;-67
2021/01/01 02:10:54;;;;;;;53.78;34.70;;;;;;;0.31;86.86;99400.32;2921992;80;21157;-68
2021/01/01 02:14:57;;;;;;;50.83;31.12;;;;;;;0.28;86.94;99400.01;2921443;81;21579;-69
2021/01/01 02:19:01;;;;;;;56.83;36.55;;;;;;;0.30;87.04;99398.63;2921556;80;21714;-67
2021/01/01 02:23:05;;;;;;;49.08;31.33;;;;;;;0.33;87.03;99397.16;2922460;81;21936;-68
2021/01/01 02:27:08;;;;;;;55.80;29.18;;;;;;;0.36;86.74;99390.44;2921819;81;21178;-66
2021/01/01 02:31:12;;;;;;;48.60;28.42;;;;;;;0.21;86.48;99396.05;2921958;81;21580;-69
2021/01/01 02:35:15;;;;;;;66.75;36.23;;;;;;;0.11;87.05;99385.70;2921890;80;21145;-68
2021/01/01 02:39:18;;;;;;;52.58;31.73;;;;;;;0.14;87.57;99394.69;2921809;81;21133;-67
2021/01/01 02:43:25;;;;;;;61.70;34.38;;;;;;;0.16;87.35;99390.22;2921805;81;21138;-69
2021/01/01 02:47:30;;;;;;;;;;;;;;;0.20;87.21;99386.98;2924806;80;21118;-66
2021/01/01 02:51:33;;;;;;;51.63;32.93;;;;;;;0.24;87.12;99378.87;2924411;81;20179;-71
2021/01/01 02:55:36;;;;;;;57.48;34.48;;;;;;;0.17;86.82;99383.20;2921898;81;21153;-68
2021/01/01 02:59:39;;;;;;;51.53;28.23;;;;;;;0.10;86.99;99382.23;2922046;80;21575;-67
2021/01/01 03:03:44;;;;;;;40.33;22.87;;;;;;;0.10;87.29;99376.17;2858617;83;21172;-68
2021/01/01 03:07:47;;;;;;;54.23;33.75;;;;;;;0.04;87.26;99385.63;2859879;82;21171;-69
2021/01/01 03:11:50;;;;;;;49.40;29.98;;;;;;;-0.06;87.67;99390.05;2861298;83;21156;-69
2021/01/01 03:15:53;;;;;;;52.78;28.55;;;;;;;-0.04;87.66;99376.87;2860864;83;21645;-69
2021/01/01 03:19:56;;;;;;;49.60;32.48;;;;;;;-0.10;87.86;99370.19;2861445;83;21164;-67
2021/01/01 03:23:59;;;;;;;57.23;32.55;;;;;;;-0.08;88.08;99381.89;2861551;83;21163;-68
2021/01/01 03:28:03;;;;;;;54.63;34.48;;;;;;;-0.11;88.20;99382.05;2861351;82;21155;-68
2021/01/01 03:32:08;;;;;;;52.05;30.95;;;;;;;-0.01;88.26;99391.09;2861538;81;21156;-67
2021/01/01 03:36:12;;;;;;;51.10;32.08;;;;;;;0.12;87.98;99380.38;2861472;81;21156;-68
2021/01/01 03:40:16;;;;;;;64.97;32.75;;;;;;;0.19;87.69;99373.50;2861161;82;21153;-69
2021/01/01 03:44:19;;;;;;;59.65;30.95;;;;;;;0.25;87.22;99374.50;2859036;83;21140;-68
2021/01/01 03:48:21;;;;;;;51.25;30.62;;;;;;;0.21;86.79;99375.59;2860128;83;21164;-69
2021/01/01 03:52:24;;;;;;;50.85;31.02;;;;;;;0.18;86.85;99365.27;2859621;83;21172;-69
2021/01/01 03:56:27;;;;;;;54.48;32.90;;;;;;;0.22;86.77;99370.75;2858988;83;21157;-70
2021/01/01 04:00:30;;;;;;;49.95;27.98;;;;;;;0.29;86.96;99374.70;2866679;80;21611;-69
2021/01/01 04:04:33;;;;;;;48.68;29.50;;;;;;;0.46;87.13;99372.95;2892436;81;21736;-67
2021/01/01 04:08:36;;;;;;;57.10;32.48;;;;;;;0.55;86.42;99367.20;2908250;81;21146;-68
2021/01/01 04:12:40;;;;;;;45.38;28.57;;;;;;;0.51;86.05;99360.00;2910399;81;21564;-67
2021/01/01 04:16:45;;;;;;;58.98;37.20;;;;;;;0.47;85.80;99356.33;2910336;81;21180;-69
2021/01/01 04:20:48;;;;;;;55.33;31.23;;;;;;;0.41;86.02;99358.36;2910472;81;21970;-66
2021/01/01 04:24:51;;;;;;;51.98;30.43;;;;;;;0.41;86.10;99349.65;2908391;81;21435;-66
2021/01/01 04:28:54;;;;;;;47.20;31.00;;;;;;;0.35;85.83;99356.53;2908266;81;21510;-68
2021/01/01 04:32:57;;;;;;;48.35;30.77;;;;;;;0.35;86.25;99361.28;2908767;81;21141;-68
2021/01/01 04:37:00;;;;;;;50.25;32.25;;;;;;;0.42;86.29;99364.41;2910308;80;21082;-66
2021/01/01 04:41:03;;;;;;;49.15;29.90;;;;;;;0.45;85.99;99367.34;2910458;81;21512;-69
2021/01/01 04:45:09;;;;;;;49.65;30.52;;;;;;;0.39;85.53;99360.66;2910489;80;21165;-66
2021/01/01 04:49:12;;;;;;;49.77;30.37;;;;;;;0.34;85.57;99360.91;2908979;81;21141;-67
2021/01/01 04:53:18;;;;;;;55.30;31.90;;;;;;;0.36;85.63;99356.43;2907577;81;21177;-67
2021/01/01 04:57:23;;;;;;;45.60;29.65;;;;;;;0.38;85.62;99363.73;2907498;80;21166;-67
2021/01/01 05:01:28;;;;;;;47.10;29.40;;;;;;;0.42;85.60;99363.97;2908312;81;21598;-70
2021/01/01 05:05:31;;;;;;;50.83;31.15;;;;;;;0.38;85.32;99365.03;2910174;80;21114;-68
2021/01/01 05:09:34;;;;;;;47.73;27.98;;;;;;;0.37;85.33;99367.27;2907565;80;21227;-68
2021/01/01 05:13:39;;;;;;;59.95;31.90;;;;;;;0.40;85.30;99371.06;2909358;81;21121;-68
2021/01/01 05:17:42;;;;;;;73.70;31.55;;;;;;;0.42;85.25;99363.11;2910123;81;21595;-68
2021/01/01 05:21:45;;;;;;;47.53;28.20;;;;;;;0.39;85.10;99358.05;2910436;81;21576;-68
2021/01/01 05:26:12;;;;;;;56.92;32.75;;;;;;;0.38;85.11;99368.13;2910132;80;21141;-68
2021/01/01 05:30:16;;;;;;;45.98;28.60;;;;;;;0.38;85.42;99368.13;2909803;80;21145;-67
2021/01/01 05:34:24;;;;;;;54.80;30.32;;;;;;;0.37;85.03;99371.20;2888485;81;21100;-67
2021/01/01 05:38:26;;;;;;;52.80;33.60;;;;;;;0.30;84.72;99373.78;2917578;81;21137;-68
2021/01/01 05:42:29;;;;;;;46.50;32.55;;;;;;;0.25;85.01;99373.19;2917904;81;21468;-69
2021/01/01 05:46:32;;;;;;;42.98;24.70;;;;;;;0.28;85.26;99378.25;2917142;81;21505;-68
2021/01/01 05:50:36;;;;;;;54.65;32.17;;;;;;;0.27;84.96;99381.31;2919682;80;21113;-68
2021/01/01 05:54:43;;;;;;;54.48;34.15;;;;;;;0.20;85.00;99389.60;2946925;80;21119;-67
2021/01/01 05:58:46;;;;;;;55.38;31.30;;;;;;;0.21;85.41;99387.37;2943354;80;21124;-69
2021/01/01 06:02:53;;;;;;;52.30;30.88;;;;;;;0.22;85.26;99384.65;2943545;80;21223;-68
2021/01/01 06:07:00;;;;;;;51.08;29.40;;;;;;;0.22;85.18;99394.28;2897359;82;21137;-68
2021/01/01 06:11:05;;;;;;;54.98;31.35;;;;;;;0.16;84.75;99406.36;2897301;82;21143;-69
2021/01/01 06:15:10;;;;;;;53.87;33.30;;;;;;;0.06;85.21;99402.08;2898189;82;21611;-68
2021/01/01 06:19:13;;;;;;;58.45;36.83;;;;;;;0.10;85.49;99413.61;2898902;80;21161;-67
2021/01/01 06:23:20;;;;;;;63.85;30.17;;;;;;;0.12;85.26;99399.16;2898915;82;21102;-67
2021/01/01 06:27:25;;;;;;;56.25;30.65;;;;;;;0.08;85.40;99405.00;2897551;82;21141;-67
2021/01/01 06:31:28;;;;;;;43.60;30.32;;;;;;;0.12;85.36;99408.31;2898407;82;21136;-67
2021/01/01 06:35:31;;;;;;;53.70;32.60;;;;;;;0.10;85.26;99407.55;2900115;82;21105;-68
2021/01/01 06:39:45;;;;;;;50.23;30.90;;;;;;;0.11;85.30;99406.14;2899885;80;21559;-67
2021/01/01 06:43:54;;;;;;;55.98;32.05;;;;;;;0.14;85.20;99413.00;2899783;82;21109;-66
2021/01/01 06:47:57;;;;;;;48.73;28.85;;;;;;;0.13;85.05;99405.59;2900123;82;21132;-67
2021/01/01 06:52:13;;;;;;;54.23;30.60;;;;;;;0.18;85.28;99403.20;2897793;82;21113;-68
2021/01/01 06:56:22;;;;;;;47.60;26.07;;;;;;;0.18;85.22;99413.66;2889922;82;21162;-65
2021/01/01 07:00:51;;;;;;;48.07;32.70;;;;;;;0.09;84.74;99411.92;2843875;82;29238;-67
2021/01/01 07:04:55;;;;;;;47.60;29.40;;;;;;;0.18;85.05;99406.67;2897323;82;21647;-67
2021/01/01 07:08:58;;;;;;;53.08;31.70;;;;;;;0.28;85.13;99403.11;2897525;82;21121;-67
2021/01/01 07:13:17;;;;;;;45.75;29.85;;;;;;;0.24;84.61;99406.81;2897521;82;21130;-67
2021/01/01 07:17:49;;;;;;;49.42;29.55;;;;;;;0.25;84.77;99409.81;3127894;75;22832;-64
2021/01/01 07:21:52;;;;;;;52.45;32.35;;;;;;;0.11;84.88;99411.86;2976270;79;21610;-66
2021/01/01 07:25:55;;;;;;;51.35;32.73;;;;;;;0.11;84.88;99411.86;3030611;78;21093;-64
2021/01/01 07:30:11;;;;;;;45.17;28.67;;;;;;;0.10;85.01;99411.48;2976251;80;22203;-67
2021/01/01 07:34:15;;;;;;;63.68;39.27;;;;;;;0.14;85.08;99397.30;3031069;78;21148;-66
2021/01/01 07:38:22;;;;;;;364.95;199.27;;;;;;;0.17;84.97;99411.97;2976782;80;21145;-66
2021/01/01 07:42:25;;;;;;;75.28;37.23;;;;;;;0.12;85.12;99409.62;2934800;80;22331;-68
2021/01/01 07:46:30;;;;;;;108.72;69.70;;;;;;;0.05;85.29;99436.55;2877583;82;21152;-68
2021/01/01 07:50:35;;;;;;;133.35;95.90;;;;;;;0.02;85.58;99441.95;2901102;82;21156;-69
2021/01/01 07:54:50;;;;;;;48.63;27.58;;;;;;;0.12;85.94;99420.08;2900856;81;21113;-67
2021/01/01 07:58:54;;;;;;;31.45;18.80;;;;;;;0.15;86.00;99412.07;2901529;81;21113;-67
2021/01/01 08:03:00;;;;;;;48.90;30.30;;;;;;;0.18;85.61;99447.22;2901001;82;21628;-70
2021/01/01 08:07:02;;;;;;;50.12;35.83;;;;;;;0.11;85.86;99450.61;2900821;82;21620;-68
2021/01/01 08:11:08;;;;;;;46.05;28.10;;;;;;;0.21;86.20;99439.20;2900978;82;21121;-67
2021/01/01 08:15:12;;;;;;;41.15;28.73;;;;;;;0.37;85.70;99443.16;2901460;80;21168;-67
2021/01/01 08:19:23;;;;;;;47.43;29.23;;;;;;;0.47;85.66;99440.06;2901800;81;21123;-66
2021/01/01 08:23:48;;;;;;;55.38;37.38;;;;;;;0.54;85.01;99446.64;2901730;81;21150;-66
2021/01/01 08:27:52;;;;;;;47.48;36.48;;;;;;;0.60;85.03;99435.87;2901020;81;22216;-67
2021/01/01 08:31:58;;;;;;;67.47;39.05;;;;;;;0.67;84.54;99413.65;2901071;82;21153;-67
2021/01/01 08:36:03;;;;;;;49.42;33.18;;;;;;;0.67;84.54;99413.65;2900939;80;21160;-66
2021/01/01 08:40:10;;;;;;;53.80;33.38;;;;;;;0.83;84.65;99435.07;2901230;82;22204;-67
2021/01/01 08:44:18;;;;;;;63.28;42.13;;;;;;;1.00;84.56;99440.67;2900986;82;21647;-66
2021/01/01 08:48:21;;;;;;;70.87;43.48;;;;;;;1.12;84.09;99432.59;2901272;81;21173;-67
2021/01/01 08:52:26;;;;;;;53.30;36.77;;;;;;;1.21;83.78;99424.22;2875714;82;21156;-67
2021/01/01 08:56:30;;;;;;;64.07;40.95;;;;;;;1.17;83.40;99418.75;2900355;81;21153;-66
2021/01/01 09:00:34;;;;;;;77.70;46.90;;;;;;;1.17;83.40;99418.75;2900992;82;21145;-67
2021/01/01 09:04:37;;;;;;;43.85;30.85;;;;;;;1.32;83.40;99441.09;2900718;81;21141;-66
2021/01/01 09:08:40;;;;;;;54.35;37.33;;;;;;;1.41;83.37;99452.37;2900945;82;21109;-68
2021/01/01 09:12:45;;;;;;;45.73;31.00;;;;;;;1.50;83.53;99447.91;2900906;80;21141;-66
2021/01/01 09:16:49;;;;;;;48.02;34.00;;;;;;;1.58;82.87;99461.05;2898742;82;21606;-66
2021/01/01 09:21:13;;;;;;;71.57;50.35;;;;;;;1.64;83.06;99469.86;2889255;82;21204;-67
2021/01/01 09:25:22;;;;;;;114.12;74.60;;;;;;;1.75;82.87;99465.30;2878286;82;21172;-69
2021/01/01 09:29:25;;;;;;;70.05;50.67;;;;;;;1.73;82.49;99471.94;2896602;82;21122;-69
2021/01/01 09:33:28;;;;;;;50.17;38.05;;;;;;;1.78;82.66;99475.16;2875080;82;21160;-68
2021/01/01 09:37:31;;;;;;;51.77;32.38;;;;;;;1.91;82.64;99471.80;2892720;82;21117;-68
2021/01/01 09:41:36;;;;;;;56.73;32.90;;;;;;;2.05;82.70;99480.16;2897568;82;21113;-67
2021/01/01 09:45:42;;;;;;;71.00;36.28;;;;;;;2.14;82.31;99484.38;2897728;82;21121;-70
2021/01/01 09:49:45;;;;;;;54.67;34.73;;;;;;;2.18;81.95;99479.81;2856324;82;21148;-67
2021/01/01 09:53:48;;;;;;;40.52;25.23;;;;;;;2.14;81.62;99480.45;2858699;80;21450;-66
2021/01/01 09:57:51;;;;;;;42.55;26.02;;;;;;;2.10;81.73;99475.02;2852520;83;21120;-67
2021/01/01 10:01:54;;;;;;;45.73;31.45;;;;;;;2.11;81.92;99479.33;2852593;83;21120;-66
2021/01/01 10:05:57;;;;;;;60.78;33.63;;;;;;;2.11;82.08;99482.43;2852227;83;21192;-67
2021/01/01 10:10:00;;;;;;;56.20;30.35;;;;;;;2.23;82.15;99478.23;2852277;83;21555;-66
2021/01/01 10:14:03;;;;;;;51.42;29.80;;;;;;;2.33;81.58;99475.41;2852187;83;21168;-67
2021/01/01 10:18:06;;;;;;;65.05;38.08;;;;;;;2.31;80.78;99472.52;2874997;82;21729;-66
2021/01/01 10:22:09;;;;;;;93.65;55.98;;;;;;;2.35;81.25;99480.09;2876467;82;21140;-67
2021/01/01 10:26:13;;;;;;;134.70;73.52;;;;;;;2.48;81.81;99476.73;2887968;82;21160;-67
2021/01/01 10:30:17;;;;;;;73.12;45.40;;;;;;;2.63;80.94;99477.11;2900257;81;21173;-65
2021/01/01 10:34:20;;;;;;;69.85;42.78;;;;;;;2.70;80.54;99469.20;2900350;82;21101;-67
2021/01/01 10:38:23;;;;;;;90.25;60.52;;;;;;;2.75;80.51;99468.07;2900753;81;21587;-66
2021/01/01 10:42:27;;;;;;;84.85;61.80;;;;;;;2.80;80.23;99468.66;2900888;80;21161;-66
2021/01/01 10:46:31;;;;;;;75.57;51.90;;;;;;;2.85;79.92;99468.74;2900758;82;21603;-66
2021/01/01 10:50:34;;;;;;;48.42;33.85;;;;;;;2.91;79.85;99466.17;2900927;82;21119;-67
2021/01/01 10:54:36;;;;;;;56.68;32.42;;;;;;;2.96;80.19;99458.01;2900769;81;21181;-66
2021/01/01 10:58:39;;;;;;;48.78;30.45;;;;;;;3.02;79.79;99457.61;2900242;81;21164;-66
2021/01/01 11:02:42;;;;;;;41.15;27.35;;;;;;;3.09;79.93;99455.44;2900820;81;21141;-67
2021/01/01 11:06:45;;;;;;;44.53;28.17;;;;;;;3.15;79.94;99457.70;2900553;82;21153;-68
2021/01/01 11:10:49;;;;;;;46.88;27.87;;;;;;;3.18;79.64;99454.86;2900296;82;21153;-66
2021/01/01 12:24:54;;;;;;;54.42;34.35;;;;;;;3.38;80.17;99451.41;2886142;82;22132;-68
2021/01/01 12:28:58;;;;;;;98.62;64.58;;;;;;;3.45;80.00;99454.00;2897710;82;21145;-69
2021/01/01 12:33:03;;;;;;;94.85;54.58;;;;;;;3.48;80.12;99461.68;2874497;82;21614;-72
2021/01/01 12:37:06;;;;;;;98.52;57.25;;;;;;;3.54;80.24;99463.93;2897679;82;21144;-69
2021/01/01 12:41:10;;;;;;;93.65;52.33;;;;;;;3.53;79.35;99464.84;2897469;82;21647;-67
2021/01/01 12:45:15;;;;;;;63.92;44.20;;;;;;;3.50;79.43;99462.42;2898067;82;21141;-68
2021/01/01 12:49:18;;;;;;;106.80;63.73;;;;;;;3.49;79.60;99470.43;2897928;81;21599;-70
2021/01/01 12:53:21;;;;;;;56.48;36.13;;;;;;;3.49;79.45;99468.63;2891224;82;21145;-68
2021/01/01 12:57:26;;;;;;;51.00;30.15;;;;;;;3.49;79.44;99475.20;2897471;82;21157;-68
2021/01/01 13:01:34;;;;;;;65.97;37.75;;;;;;;3.57;79.56;99479.50;2897899;82;21105;-68
2021/01/01 13:05:40;;;;;;;80.45;49.20;;;;;;;3.64;79.39;99486.98;2897389;82;21153;-68
2021/01/01 13:09:43;;;;;;;139.30;83.35;;;;;;;3.71;79.35;99488.25;2897938;82;21157;-69
2021/01/01 13:13:46;;;;;;;56.58;32.08;;;;;;;3.80;79.16;99489.42;2897983;82;21118;-68
2021/01/01 13:17:49;;;;;;;58.42;34.33;;;;;;;3.86;78.79;99499.56;2906436;80;21193;-68
2021/01/01 13:21:52;;;;;;;115.55;64.12;;;;;;;4.00;78.74;99507.36;2929360;80;21685;-68
2021/01/01 13:25:59;;;;;;;118.42;77.03;;;;;;;4.05;78.24;99505.74;2924623;80;21152;-67
2021/01/01 13:30:01;;;;;;;107.93;65.63;;;;;;;4.08;77.95;99514.74;2924778;81;21133;-67
2021/01/01 13:34:10;;;;;;;64.97;39.95;;;;;;;4.13;78.31;99515.76;2933969;80;21100;-67
2021/01/01 13:38:13;;;;;;;57.67;36.03;;;;;;;4.23;78.14;99523.88;2918489;81;21156;-67
2021/01/01 13:42:18;;;;;;;64.53;41.18;;;;;;;4.32;77.84;99524.55;2963744;79;21084;-66
2021/01/01 13:46:25;;;;;;;73.60;45.15;;;;;;;4.43;78.04;99527.80;2964030;78;21602;-68
2021/01/01 13:50:33;;;;;;;57.33;37.70;;;;;;;4.51;77.37;99532.52;2954671;80;21126;-67
2021/01/01 13:54:58;;;;;;;52.43;31.60;;;;;;;4.53;77.09;99532.78;2918370;81;21652;-65
2021/01/01 13:59:01;;;;;;;48.90;33.63;;;;;;;4.61;76.85;99528.31;2818195;84;21168;-66
2021/01/01 14:03:06;;;;;;;44.98;29.02;;;;;;;4.66;76.41;99539.36;2816674;84;21183;-66
2021/01/01 14:07:10;;;;;;;103.07;60.98;;;;;;;4.70;76.31;99542.15;2820268;84;21177;-65
2021/01/01 14:11:13;;;;;;;48.52;34.85;;;;;;;4.66;75.97;99540.68;2863970;83;21153;-63
2021/01/01 14:15:20;;;;;;;121.40;65.05;;;;;;;4.64;75.98;99541.76;2856372;83;21145;-70
2021/01/01 14:19:24;;;;;;;50.40;30.50;;;;;;;4.63;76.00;99547.48;2777828;85;21161;-66
2021/01/01 14:23:30;;;;;;;129.60;71.62;;;;;;;4.61;75.73;99555.97;2834628;84;21134;-66
2021/01/01 14:27:33;;;;;;;58.68;39.33;;;;;;;4.52;75.70;99564.48;2777390;85;21204;-66
2021/01/01 14:31:40;;;;;;;54.80;34.55;;;;;;;4.32;75.71;99563.22;2834504;83;21138;-65
2021/01/01 14:35:44;;;;;;;54.95;35.75;;;;;;;4.09;76.14;99567.75;2818715;83;21164;-65
2021/01/01 14:39:50;;;;;;;62.80;43.58;;;;;;;4.00;77.29;99565.74;2723684;85;21177;-65
2021/01/01 14:43:54;;;;;;;88.35;56.42;;;;;;;4.07;77.50;99560.44;2765350;83;21204;-65
2021/01/01 14:47:57;;;;;;;60.43;38.38;;;;;;;4.13;77.50;99567.09;2795241;84;21724;-65
2021/01/01 14:52:00;;;;;;;62.93;34.43;;;;;;;4.14;77.32;99569.63;2753902;86;21182;-65
2021/01/01 14:56:05;;;;;;;52.00;34.45;;;;;;;4.02;77.09;99562.53;2752139;86;21182;-64
2021/01/01 15:00:10;;;;;;;77.53;47.70;;;;;;;3.94;77.58;99566.98;2792459;85;21165;-64
2021/01/01 15:04:13;;;;;;;65.10;39.45;;;;;;;3.77;77.38;99566.78;2795902;85;21176;-65
2021/01/01 15:08:16;;;;;;;61.73;34.40;;;;;;;3.70;78.08;99559.77;2778496;85;21184;-64
2021/01/01 15:12:20;;;;;;;63.70;39.67;;;;;;;3.67;78.24;99564.36;2815421;84;21191;-63
2021/01/01 15:16:24;;;;;;;62.93;37.33;;;;;;;3.65;78.23;99568.43;2742820;85;21200;-66
2021/01/01 15:20:27;;;;;;;58.15;37.53;;;;;;;3.64;78.43;99571.14;2789281;85;21201;-66
2021/01/01 15:24:30;;;;;;;130.03;88.70;;;;;;;3.61;78.42;99564.77;2814206;84;21132;-64
2021/01/01 15:28:33;;;;;;;124.75;87.17;;;;;;;3.57;78.72;99568.92;2795470;85;21169;-64
2021/01/01 15:32:37;;;;;;;162.03;105.55;;;;;;;3.53;78.77;99567.41;2795395;85;21177;-63
2021/01/01 15:36:41;;;;;;;73.87;44.27;;;;;;;3.45;79.11;99563.12;2788847;84;21666;-63
2021/01/01 15:40:44;;;;;;;82.70;59.42;;;;;;;3.42;79.23;99564.64;2782576;85;21179;-63
2021/01/01 15:44:47;;;;;;;93.97;64.90;;;;;;;3.41;79.49;99566.89;2780422;85;21644;-65
2021/01/01 15:48:50;;;;;;;117.28;66.65;;;;;;;3.36;79.41;99563.72;2777341;84;21172;-65
2021/01/01 15:52:54;;;;;;;160.75;98.25;;;;;;;3.31;79.64;99560.52;2781528;85;21478;-65
2021/01/01 15:56:58;;;;;;;149.25;91.15;;;;;;;3.29;79.66;99568.03;2776335;85;21133;-66
2021/01/01 16:01:02;;;;;;;82.65;49.63;;;;;;;3.34;79.94;99576.95;2741723;86;21606;-66
2021/01/01 16:05:08;;;;;;;91.02;58.65;;;;;;;3.27;79.31;99590.95;2772570;85;21180;-66
2021/01/01 16:09:11;;;;;;;92.40;55.63;;;;;;;3.14;79.78;99603.16;2792374;85;21177;-66
2021/01/01 16:13:15;;;;;;;93.30;53.28;;;;;;;3.18;80.37;99601.19;2792678;85;21190;-68
2021/01/01 16:17:18;;;;;;;81.22;47.80;;;;;;;3.18;80.01;99604.67;2792869;85;21170;-69
2021/01/01 16:21:22;;;;;;;71.72;43.38;;;;;;;3.11;80.32;99605.98;2760514;85;21197;-69
2021/01/01 16:25:25;;;;;;;73.50;48.00;;;;;;;2.99;80.77;99601.87;2754614;85;21169;-69
2021/01/01 16:29:30;;;;;;;144.77;78.83;;;;;;;2.99;81.33;99607.13;2772101;85;21186;-69
2021/01/01 16:33:33;;;;;;;197.32;111.88;;;;;;;3.08;81.50;99603.09;2800499;85;21563;-69
2021/01/01 16:37:38;;;;;;;154.55;85.05;;;;;;;3.10;81.23;99601.66;2800480;83;21181;-69
2021/01/01 16:41:43;;;;;;;89.97;53.35;;;;;;;3.05;81.48;99602.42;2800416;84;21173;-68
2021/01/01 16:45:49;;;;;;;83.65;54.83;;;;;;;3.05;81.55;99604.59;2800610;85;21184;-69
2021/01/01 16:49:51;;;;;;;92.70;57.83;;;;;;;3.04;81.73;99616.50;2800314;85;21196;-69
2021/01/01 16:53:55;;;;;;;100.35;61.83;;;;;;;3.07;81.67;99610.59;2729838;84;21202;-69
2021/01/01 16:57:59;;;;;;;92.67;60.05;;;;;;;2.99;81.70;99622.89;2732467;87;21641;-68
2021/01/01 17:02:02;;;;;;;99.28;58.75;;;;;;;2.97;81.97;99618.66;2742002;84;21151;-68
2021/01/01 17:06:05;;;;;;;87.50;49.18;;;;;;;2.83;82.06;99612.44;2783611;85;21183;-68
2021/01/01 17:10:10;;;;;;;90.80;55.88;;;;;;;2.74;82.54;99614.78;2783261;85;21175;-68
2021/01/01 17:14:15;;;;;;;129.20;74.77;;;;;;;2.67;82.89;99630.91;2783313;84;21237;-69
2021/01/01 17:18:19;;;;;;;212.15;131.63;;;;;;;2.72;82.83;99631.96;2783186;85;21172;-69
2021/01/01 17:22:23;;;;;;;136.73;85.40;;;;;;;2.73;83.09;99631.48;2785322;84;21168;-71
2021/01/01 17:26:27;;;;;;;100.20;62.33;;;;;;;2.74;82.66;99633.16;2805736;84;21168;-71
2021/01/01 17:30:31;;;;;;;89.30;55.80;;;;;;;2.67;82.70;99632.71;2802061;84;21136;-71
2021/01/01 17:34:35;;;;;;;73.72;49.95;;;;;;;2.59;82.85;99637.10;2785997;84;21183;-71
2021/01/01 17:38:39;;;;;;;80.00;46.92;;;;;;;2.58;83.33;99643.29;2782526;84;21250;-71
2021/01/01 17:42:43;;;;;;;65.90;44.38;;;;;;;2.60;83.23;99644.05;2782796;85;21717;-71
2021/01/01 17:46:46;;;;;;;81.40;54.48;;;;;;;2.55;83.46;99648.70;2783774;85;21139;-71
2021/01/01 17:50:50;;;;;;;93.58;52.35;;;;;;;2.47;83.41;99657.05;2783432;84;21144;-71
2021/01/01 17:54:54;;;;;;;96.02;56.37;;;;;;;2.41;83.83;99660.01;2782063;84;22276;-71
2021/01/01 17:58:57;;;;;;;83.92;57.50;;;;;;;2.39;83.90;99667.99;2768336;85;21188;-71
2021/01/01 18:03:00;;;;;;;84.35;57.00;;;;;;;2.42;84.39;99673.06;2763600;86;21176;-71
2021/01/01 18:07:04;;;;;;;119.15;75.37;;;;;;;2.42;83.91;99661.70;2756955;86;21659;-71
2021/01/01 18:11:08;;;;;;;102.92;59.05;;;;;;;2.36;84.01;99664.23;2756636;86;21611;-71
2021/01/01 18:15:12;;;;;;;99.17;54.88;;;;;;;2.33;84.24;99660.94;2756614;86;21585;-71
2021/01/01 18:19:15;;;;;;;80.53;51.42;;;;;;;2.31;84.43;99662.32;2756562;86;22268;-71
2021/01/01 18:23:39;;;;;;;132.95;81.50;;;;;;;2.34;84.56;99670.02;2756714;86;21570;-71
2021/01/01 18:27:55;;;;;;;302.68;161.28;;;;;;;2.40;84.59;99673.63;2756553;86;21751;-71
2021/01/01 18:32:03;;;;;;;259.00;140.10;;;;;;;2.47;84.42;99682.44;2756596;86;21637;-71
2021/01/01 18:36:20;;;;;;;103.62;56.50;;;;;;;2.47;84.16;99679.37;2756846;86;21163;-70
2021/01/01 18:40:25;;;;;;;94.13;58.28;;;;;;;2.43;84.16;99687.87;2738449;85;21191;-71
2021/01/01 18:44:30;;;;;;;92.27;49.73;;;;;;;2.36;84.41;99689.17;2709669;87;21200;-71
2021/01/01 18:48:35;;;;;;;88.47;51.40;;;;;;;2.33;84.58;99688.49;2709471;87;21184;-72
2021/01/01 18:52:41;;;;;;;88.62;54.05;;;;;;;2.28;84.80;99694.86;2729394;86;22250;-72
2021/01/01 18:56:48;;;;;;;78.72;51.70;;;;;;;2.31;84.87;99692.50;2756799;86;21877;-71
2021/01/01 19:00:55;;;;;;;90.90;53.28;;;;;;;2.42;85.50;99686.19;2717141;84;21214;-71
2021/01/01 19:05:32;;;;;;;88.67;51.55;;;;;;;2.64;85.30;99692.81;2743078;85;21177;-71
2021/01/01 19:09:50;;;;;;;105.15;59.60;;;;;;;2.76;84.13;99700.92;2799802;84;21200;-71
2021/01/01 19:13:55;;;;;;;92.02;55.73;;;;;;;2.74;83.92;99704.94;2799865;84;21181;-71
2021/01/01 19:18:06;;;;;;;155.35;79.75;;;;;;;2.77;83.50;99710.49;2799775;85;21185;-71
2021/01/01 19:22:26;;;;;;;192.92;109.80;;;;;;;2.76;83.50;99716.20;2799969;84;21221;-71
2021/01/01 19:26:31;;;;;;;115.20;64.62;;;;;;;2.80;83.54;99717.70;2799495;84;21137;-71
2021/01/01 19:30:56;;;;;;;192.28;100.45;;;;;;;2.75;83.07;99718.45;2799432;85;21208;-71
2021/01/01 19:35:23;;;;;;;122.98;74.70;;;;;;;2.63;83.64;99727.03;2799584;85;21749;-70
2021/01/01 19:39:41;;;;;;;116.80;66.28;;;;;;;2.67;83.97;99734.65;2800119;83;21148;-71
2021/01/01 19:44:25;;;;;;;200.13;121.37;;;;;;;2.61;83.80;99736.33;2799868;84;21200;-71
2021/01/01 19:49:04;;;;;;;149.07;87.70;;;;;;;2.69;84.44;99743.28;2799635;85;21132;-69
2021/01/01 19:53:39;;;;;;;150.57;89.10;;;;;;;2.90;84.04;99748.70;2798888;84;21591;-69
2021/01/01 19:57:59;;;;;;;457.95;245.97;;;;;;;2.92;83.68;99741.09;2800063;84;21983;-70
2021/01/01 20:02:11;;;;;;;318.15;152.82;;;;;;;3.13;84.19;99739.44;2802979;84;21133;-69
2021/01/01 20:06:14;;;;;;;196.45;115.03;;;;;;;3.33;83.41;99750.09;2802802;84;21148;-69
2021/01/01 20:10:22;;;;;;;136.85;85.95;;;;;;;3.52;83.32;99758.18;2802813;84;21193;-69
2021/01/01 20:14:25;;;;;;;108.30;63.92;;;;;;;3.50;81.39;99758.26;2803069;84;21133;-69